BTK7683 WAMM-ZSNB
Flight info
| Callsign | BTK7683 |
|---|---|
| Flight time | N/A |
| Altitude | 33700 |
| Route | NITIP A461 MIA W16 AVMUP A461 NOMAN DCT SOUSA V601 DOTMI/K0876S1025 A470 LJG B221 SHZ SHZ81A |
| Aircraft | B738/M-SDE2E3FGHIRWXY/LB1 |
Departure
| Time | 2026-05-05 06:12 |
|---|---|
| Airport | Sam Ratulangi International Airport (WAMM) |
Arrival
| Time | N/A |
|---|---|
| Airport | Ningbo Lishe International Airport (ZSNB) |
| Time | Latitude | Longitude | Altitude | Speed | Heading |
|---|---|---|---|---|---|
| 2026-05-05 06:00 | 1.54071 | 124.92335 | 273 ft | 0 kts | 271° |
| 2026-05-05 06:06 | 1.54071 | 124.92338 | 273 ft | 2 kts | 271° |
| 2026-05-05 06:06 | 1.54070 | 124.92353 | 273 ft | 2 kts | 271° |
| 2026-05-05 06:06 | 1.54070 | 124.92368 | 273 ft | 2 kts | 271° |
| 2026-05-05 06:06 | 1.54070 | 124.92383 | 273 ft | 2 kts | 271° |
| 2026-05-05 06:07 | 1.54070 | 124.92397 | 273 ft | 2 kts | 252° |
| 2026-05-05 06:07 | 1.54079 | 124.92409 | 273 ft | 2 kts | 215° |
| 2026-05-05 06:07 | 1.54092 | 124.92415 | 273 ft | 2 kts | 181° |
| 2026-05-05 06:07 | 1.54104 | 124.92414 | 273 ft | 0 kts | 176° |
| 2026-05-05 06:08 | 1.54109 | 124.92414 | 273 ft | 0 kts | 181° |
| 2026-05-05 06:10 | 1.54107 | 124.92414 | 273 ft | 0 kts | 181° |
| 2026-05-05 06:10 | 1.54062 | 124.92413 | 273 ft | 15 kts | 181° |
| 2026-05-05 06:10 | 1.53934 | 124.92435 | 273 ft | 18 kts | 175° |
| 2026-05-05 06:11 | 1.53794 | 124.92436 | 273 ft | 22 kts | 168° |
| 2026-05-05 06:11 | 1.53748 | 124.92549 | 273 ft | 17 kts | 78° |
| 2026-05-05 06:11 | 1.53811 | 124.92598 | 273 ft | 0 kts | 359° |
| 2026-05-05 06:11 | 1.53835 | 124.92597 | 273 ft | 18 kts | 0° |
| 2026-05-05 06:12 | 1.54221 | 124.92611 | 273 ft | 91 kts | 2° |
| 2026-05-05 06:12 | 1.55079 | 124.92639 | 274 ft | 154 kts | 3° |
| 2026-05-05 06:12 | 1.56333 | 124.92673 | 320 ft | 199 kts | 2° |
| 2026-05-05 06:12 | 1.57709 | 124.92679 | 918 ft | 198 kts | 354° |
| 2026-05-05 06:13 | 1.59051 | 124.92227 | 1375 ft | 214 kts | 335° |
| 2026-05-05 06:13 | 1.60451 | 124.91727 | 2099 ft | 214 kts | 347° |
| 2026-05-05 06:13 | 1.61885 | 124.91426 | 2830 ft | 213 kts | 347° |
| 2026-05-05 06:13 | 1.63330 | 124.91096 | 3497 ft | 214 kts | 346° |
| 2026-05-05 06:14 | 1.64783 | 124.90757 | 4152 ft | 215 kts | 345° |
| 2026-05-05 06:14 | 1.66238 | 124.90416 | 4784 ft | 216 kts | 345° |
| 2026-05-05 06:14 | 1.67616 | 124.89897 | 5340 ft | 216 kts | 321° |
| 2026-05-05 06:14 | 1.68643 | 124.88773 | 5807 ft | 221 kts | 303° |
| 2026-05-05 06:15 | 1.69626 | 124.87590 | 6385 ft | 227 kts | 308° |
| 2026-05-05 06:15 | 1.70707 | 124.86374 | 6826 ft | 243 kts | 308° |
| 2026-05-05 06:15 | 1.71849 | 124.85066 | 7225 ft | 260 kts | 308° |
| 2026-05-05 06:15 | 1.73063 | 124.83679 | 7808 ft | 270 kts | 308° |
| 2026-05-05 06:16 | 1.74291 | 124.82278 | 8507 ft | 274 kts | 308° |
| 2026-05-05 06:16 | 1.75542 | 124.80847 | 9222 ft | 276 kts | 308° |
| 2026-05-05 06:16 | 1.76802 | 124.79407 | 9944 ft | 278 kts | 309° |
| 2026-05-05 06:16 | 1.78078 | 124.77948 | 10655 ft | 280 kts | 309° |
| 2026-05-05 06:17 | 1.79355 | 124.76488 | 11337 ft | 281 kts | 309° |
| 2026-05-05 06:17 | 1.80644 | 124.75015 | 11995 ft | 283 kts | 309° |
| 2026-05-05 06:17 | 1.81928 | 124.73546 | 12481 ft | 292 kts | 310° |
| 2026-05-05 06:17 | 1.83329 | 124.71942 | 12562 ft | 317 kts | 310° |
| 2026-05-05 06:18 | 1.84816 | 124.70244 | 13074 ft | 328 kts | 310° |
| 2026-05-05 06:18 | 1.86315 | 124.68531 | 13655 ft | 335 kts | 310° |
| 2026-05-05 06:18 | 1.87859 | 124.66767 | 14302 ft | 340 kts | 310° |
| 2026-05-05 06:18 | 1.89411 | 124.64993 | 14963 ft | 344 kts | 310° |
| 2026-05-05 06:19 | 1.90986 | 124.63193 | 15622 ft | 347 kts | 311° |
| 2026-05-05 06:19 | 1.92720 | 124.61520 | 16237 ft | 351 kts | 322° |
| 2026-05-05 06:19 | 1.94818 | 124.60260 | 16854 ft | 354 kts | 336° |
| 2026-05-05 06:19 | 1.97153 | 124.59480 | 17502 ft | 356 kts | 343° |
| 2026-05-05 06:20 | 1.99552 | 124.58800 | 18079 ft | 360 kts | 343° |
| 2026-05-05 06:20 | 2.01928 | 124.58081 | 18648 ft | 362 kts | 342° |
| 2026-05-05 06:20 | 2.04352 | 124.57345 | 19206 ft | 365 kts | 343° |
| 2026-05-05 06:20 | 2.06766 | 124.56625 | 19744 ft | 368 kts | 343° |
| 2026-05-05 06:21 | 2.09222 | 124.55894 | 20262 ft | 370 kts | 343° |
| 2026-05-05 06:21 | 2.11708 | 124.55155 | 20777 ft | 373 kts | 343° |
| 2026-05-05 06:21 | 2.14182 | 124.54419 | 21266 ft | 376 kts | 343° |
| 2026-05-05 06:21 | 2.16681 | 124.53677 | 21743 ft | 378 kts | 344° |
| 2026-05-05 06:22 | 2.19209 | 124.52925 | 22209 ft | 381 kts | 344° |
| 2026-05-05 06:22 | 2.21750 | 124.52171 | 22655 ft | 384 kts | 344° |
| 2026-05-05 06:22 | 2.24311 | 124.51410 | 23092 ft | 387 kts | 344° |
| 2026-05-05 06:22 | 2.26917 | 124.50636 | 23519 ft | 389 kts | 344° |
| 2026-05-05 06:23 | 2.29488 | 124.49873 | 23925 ft | 392 kts | 344° |
| 2026-05-05 06:23 | 2.32114 | 124.49093 | 24322 ft | 395 kts | 345° |
| 2026-05-05 06:23 | 2.34729 | 124.48315 | 24705 ft | 397 kts | 345° |
| 2026-05-05 06:23 | 2.37374 | 124.47530 | 25081 ft | 400 kts | 345° |
| 2026-05-05 06:24 | 2.40044 | 124.46737 | 25512 ft | 400 kts | 345° |
| 2026-05-05 06:24 | 2.42708 | 124.45946 | 26004 ft | 399 kts | 345° |
| 2026-05-05 06:24 | 2.45366 | 124.45155 | 26431 ft | 399 kts | 345° |
| 2026-05-05 06:24 | 2.47991 | 124.44376 | 26858 ft | 399 kts | 345° |
| 2026-05-05 06:25 | 2.50654 | 124.43584 | 27270 ft | 398 kts | 345° |
| 2026-05-05 06:25 | 2.53292 | 124.42801 | 27672 ft | 398 kts | 345° |
| 2026-05-05 06:25 | 2.55928 | 124.42017 | 28061 ft | 398 kts | 346° |
| 2026-05-05 06:25 | 2.58576 | 124.41227 | 28410 ft | 394 kts | 345° |
| 2026-05-05 06:26 | 2.63741 | 124.39635 | 28502 ft | 383 kts | 346° |
| 2026-05-05 06:26 | 2.68737 | 124.38154 | 28603 ft | 371 kts | 346° |
| 2026-05-05 06:27 | 2.75939 | 124.36012 | 28753 ft | 348 kts | 346° |
| 2026-05-05 06:27 | 2.78192 | 124.35378 | 28800 ft | 327 kts | 347° |
| 2026-05-05 06:28 | 2.80315 | 124.34759 | 28845 ft | 306 kts | 346° |
| 2026-05-05 06:28 | 2.81465 | 124.34415 | 28868 ft | 294 kts | 347° |
| 2026-05-05 06:28 | 2.83434 | 124.33845 | 28945 ft | 298 kts | 347° |
| 2026-05-05 06:28 | 2.85435 | 124.33279 | 28999 ft | 300 kts | 348° |
| 2026-05-05 06:29 | 2.86717 | 124.32947 | 29015 ft | 293 kts | 349° |
| 2026-05-05 06:29 | 2.88210 | 124.32553 | 29046 ft | 288 kts | 347° |
| 2026-05-05 06:29 | 2.90131 | 124.31986 | 29107 ft | 288 kts | 346° |
| 2026-05-05 06:29 | 2.92040 | 124.31402 | 29161 ft | 290 kts | 348° |
| 2026-05-05 06:30 | 2.93981 | 124.30812 | 29215 ft | 292 kts | 343° |
| 2026-05-05 06:30 | 2.97942 | 124.29567 | 29171 ft | 303 kts | 340° |
| 2026-05-05 06:31 | 3.02021 | 124.28195 | 29178 ft | 315 kts | 342° |
| 2026-05-05 06:31 | 3.06193 | 124.26866 | 29431 ft | 319 kts | 341° |
| 2026-05-05 06:32 | 3.10458 | 124.25491 | 29438 ft | 332 kts | 340° |
| 2026-05-05 06:32 | 3.12527 | 124.24426 | 29335 ft | 339 kts | 321° |
| 2026-05-05 06:32 | 3.14274 | 124.22952 | 29896 ft | 325 kts | 321° |
| 2026-05-05 06:33 | 3.18158 | 124.20529 | 30014 ft | 334 kts | 330° |
| 2026-05-05 06:33 | 3.22212 | 124.18129 | 30108 ft | 345 kts | 329° |
| 2026-05-05 06:34 | 3.26396 | 124.15643 | 30206 ft | 355 kts | 329° |
| 2026-05-05 06:34 | 3.30708 | 124.13080 | 30304 ft | 366 kts | 329° |
| 2026-05-05 06:35 | 3.35166 | 124.10429 | 30404 ft | 377 kts | 329° |
| 2026-05-05 06:35 | 3.39710 | 124.07725 | 30505 ft | 388 kts | 329° |
| 2026-05-05 06:36 | 3.44412 | 124.04929 | 30606 ft | 399 kts | 329° |
| 2026-05-05 06:36 | 3.49273 | 124.02036 | 30707 ft | 411 kts | 329° |
| 2026-05-05 06:37 | 3.54231 | 123.99086 | 30807 ft | 423 kts | 329° |
| 2026-05-05 06:37 | 3.59350 | 123.96040 | 30907 ft | 435 kts | 329° |
| 2026-05-05 06:38 | 3.64633 | 123.92896 | 31071 ft | 445 kts | 329° |
| 2026-05-05 06:38 | 3.67293 | 123.91312 | 31248 ft | 448 kts | 329° |
| 2026-05-05 06:38 | 3.69987 | 123.89708 | 31448 ft | 450 kts | 329° |
| 2026-05-05 06:38 | 3.72663 | 123.88115 | 31650 ft | 451 kts | 329° |
| 2026-05-05 06:39 | 3.75354 | 123.86513 | 31851 ft | 453 kts | 329° |
| 2026-05-05 06:39 | 3.78069 | 123.84896 | 32050 ft | 454 kts | 329° |
| 2026-05-05 06:39 | 3.80792 | 123.83274 | 32243 ft | 456 kts | 329° |
| 2026-05-05 06:39 | 3.83508 | 123.81657 | 32430 ft | 457 kts | 329° |
| 2026-05-05 06:40 | 3.86226 | 123.80039 | 32611 ft | 458 kts | 329° |
| 2026-05-05 06:40 | 3.88957 | 123.78411 | 32788 ft | 460 kts | 329° |
| 2026-05-05 06:40 | 3.91739 | 123.76754 | 32960 ft | 461 kts | 329° |
| 2026-05-05 06:40 | 3.94464 | 123.75131 | 33124 ft | 462 kts | 329° |
| 2026-05-05 06:41 | 3.97235 | 123.73480 | 33285 ft | 463 kts | 329° |
| 2026-05-05 06:41 | 4.00000 | 123.71832 | 33440 ft | 464 kts | 329° |
| 2026-05-05 06:41 | 4.02794 | 123.70207 | 33589 ft | 465 kts | 330° |
| 2026-05-05 06:41 | 4.05636 | 123.68610 | 33703 ft | 467 kts | 331° |
| 2026-05-05 06:42 | 4.08474 | 123.67024 | 33697 ft | 470 kts | 330° |
| 2026-05-05 06:42 | 4.14145 | 123.63821 | 33699 ft | 467 kts | 330° |
| 2026-05-05 06:43 | 4.19759 | 123.60648 | 33700 ft | 465 kts | 330° |
| 2026-05-05 06:43 | 4.25376 | 123.57471 | 33700 ft | 466 kts | 330° |
| 2026-05-05 06:44 | 4.31032 | 123.54270 | 33700 ft | 466 kts | 330° |
| 2026-05-05 06:44 | 4.36693 | 123.51066 | 33699 ft | 466 kts | 330° |
| 2026-05-05 06:45 | 4.42346 | 123.47865 | 33699 ft | 466 kts | 330° |
| 2026-05-05 06:45 | 4.47981 | 123.44673 | 33700 ft | 466 kts | 330° |
| 2026-05-05 06:46 | 4.53630 | 123.41473 | 33700 ft | 466 kts | 330° |
| 2026-05-05 06:46 | 4.59269 | 123.38278 | 33700 ft | 466 kts | 330° |
| 2026-05-05 06:47 | 4.64901 | 123.35086 | 33700 ft | 466 kts | 330° |
| 2026-05-05 06:47 | 4.70500 | 123.31913 | 33700 ft | 466 kts | 330° |
| 2026-05-05 06:48 | 4.76172 | 123.28697 | 33700 ft | 466 kts | 330° |
| 2026-05-05 06:48 | 4.81794 | 123.25509 | 33700 ft | 466 kts | 330° |
| 2026-05-05 06:49 | 4.87409 | 123.22325 | 33700 ft | 466 kts | 330° |
| 2026-05-05 06:49 | 4.93030 | 123.19137 | 33700 ft | 466 kts | 330° |
| 2026-05-05 06:50 | 4.98667 | 123.15939 | 33700 ft | 466 kts | 330° |
| 2026-05-05 06:50 | 5.04298 | 123.12743 | 33700 ft | 466 kts | 330° |
| 2026-05-05 06:51 | 5.09933 | 123.09544 | 33700 ft | 466 kts | 330° |
| 2026-05-05 06:51 | 5.15566 | 123.06347 | 33700 ft | 466 kts | 330° |
| 2026-05-05 06:52 | 5.21190 | 123.03153 | 33700 ft | 466 kts | 330° |
| 2026-05-05 06:52 | 5.26813 | 122.99960 | 33700 ft | 466 kts | 330° |
| 2026-05-05 06:53 | 5.32421 | 122.96774 | 33699 ft | 466 kts | 330° |
| 2026-05-05 06:53 | 5.38063 | 122.93568 | 33700 ft | 466 kts | 330° |
| 2026-05-05 06:54 | 5.43683 | 122.90374 | 33700 ft | 466 kts | 330° |
| 2026-05-05 06:54 | 5.49314 | 122.87174 | 33700 ft | 466 kts | 330° |
| 2026-05-05 06:55 | 5.54929 | 122.83981 | 33700 ft | 466 kts | 330° |
| 2026-05-05 06:55 | 5.60565 | 122.80776 | 33699 ft | 466 kts | 330° |
| 2026-05-05 06:56 | 5.66215 | 122.77563 | 33700 ft | 466 kts | 330° |
| 2026-05-05 06:56 | 5.71844 | 122.74361 | 33700 ft | 466 kts | 330° |
| 2026-05-05 06:57 | 5.77468 | 122.71160 | 33700 ft | 466 kts | 330° |
| 2026-05-05 06:57 | 5.83096 | 122.67956 | 33700 ft | 466 kts | 330° |
| 2026-05-05 06:58 | 5.88717 | 122.64756 | 33699 ft | 466 kts | 330° |
| 2026-05-05 06:58 | 5.94362 | 122.61542 | 33700 ft | 466 kts | 330° |
| 2026-05-05 06:59 | 5.99974 | 122.58345 | 33700 ft | 466 kts | 330° |
| 2026-05-05 06:59 | 6.05592 | 122.55145 | 33699 ft | 466 kts | 330° |
| 2026-05-05 07:00 | 6.11204 | 122.51946 | 33700 ft | 466 kts | 330° |
| 2026-05-05 07:00 | 6.16855 | 122.48727 | 33699 ft | 466 kts | 330° |
| 2026-05-05 07:01 | 6.22486 | 122.45517 | 33700 ft | 466 kts | 330° |
| 2026-05-05 07:01 | 6.28080 | 122.42326 | 33700 ft | 466 kts | 330° |
| 2026-05-05 07:02 | 6.33733 | 122.39102 | 33699 ft | 466 kts | 330° |
| 2026-05-05 07:02 | 6.39367 | 122.35888 | 33700 ft | 466 kts | 330° |
| 2026-05-05 07:03 | 6.44979 | 122.32686 | 33699 ft | 466 kts | 330° |
| 2026-05-05 07:03 | 6.50622 | 122.29464 | 33700 ft | 466 kts | 330° |
| 2026-05-05 07:04 | 6.56243 | 122.26254 | 33700 ft | 466 kts | 330° |
| 2026-05-05 07:04 | 6.61865 | 122.23043 | 33699 ft | 466 kts | 330° |
| 2026-05-05 07:05 | 6.67509 | 122.19818 | 33700 ft | 466 kts | 330° |
| 2026-05-05 07:05 | 6.73137 | 122.16602 | 33700 ft | 466 kts | 330° |
| 2026-05-05 07:06 | 6.78755 | 122.13391 | 33700 ft | 466 kts | 330° |
| 2026-05-05 07:06 | 6.84374 | 122.10178 | 33700 ft | 466 kts | 330° |
| 2026-05-05 07:07 | 6.90046 | 122.07069 | 33699 ft | 466 kts | 335° |
| 2026-05-05 07:07 | 6.96134 | 122.04948 | 33702 ft | 466 kts | 348° |
| 2026-05-05 07:08 | 7.02473 | 122.03802 | 33699 ft | 466 kts | 349° |
| 2026-05-05 07:08 | 7.08840 | 122.02587 | 33699 ft | 466 kts | 349° |
| 2026-05-05 07:09 | 7.15178 | 122.01402 | 33699 ft | 466 kts | 349° |
| 2026-05-05 07:09 | 7.21568 | 122.00219 | 33700 ft | 466 kts | 349° |
| 2026-05-05 07:10 | 7.27921 | 121.99046 | 33700 ft | 466 kts | 349° |
| 2026-05-05 07:10 | 7.34284 | 121.97872 | 33700 ft | 466 kts | 349° |
| 2026-05-05 07:11 | 7.40668 | 121.96699 | 33699 ft | 466 kts | 349° |
| 2026-05-05 07:11 | 7.47023 | 121.95534 | 33700 ft | 466 kts | 349° |
| 2026-05-05 07:12 | 7.53425 | 121.94358 | 33700 ft | 466 kts | 349° |
| 2026-05-05 07:12 | 7.59792 | 121.93189 | 33700 ft | 466 kts | 349° |
| 2026-05-05 07:13 | 7.66186 | 121.92015 | 33699 ft | 466 kts | 349° |
| 2026-05-05 07:13 | 7.72564 | 121.90844 | 33700 ft | 466 kts | 349° |
| 2026-05-05 07:14 | 7.78934 | 121.89674 | 33700 ft | 466 kts | 349° |
| 2026-05-05 07:14 | 7.85250 | 121.88513 | 33699 ft | 466 kts | 349° |
| 2026-05-05 07:15 | 7.91661 | 121.87334 | 33700 ft | 466 kts | 349° |
| 2026-05-05 07:15 | 7.98007 | 121.86168 | 33700 ft | 466 kts | 349° |
| 2026-05-05 07:16 | 8.04352 | 121.85001 | 33699 ft | 466 kts | 349° |
| 2026-05-05 07:16 | 8.10708 | 121.83831 | 33700 ft | 466 kts | 349° |
| 2026-05-05 07:17 | 8.17098 | 121.82655 | 33700 ft | 466 kts | 349° |
| 2026-05-05 07:17 | 8.23469 | 121.81483 | 33699 ft | 466 kts | 349° |
| 2026-05-05 07:18 | 8.29839 | 121.80309 | 33700 ft | 466 kts | 349° |
| 2026-05-05 07:18 | 8.36195 | 121.79139 | 33700 ft | 466 kts | 349° |
| 2026-05-05 07:19 | 8.42586 | 121.77961 | 33700 ft | 466 kts | 349° |
| 2026-05-05 07:19 | 8.48937 | 121.76790 | 33700 ft | 466 kts | 349° |
| 2026-05-05 07:20 | 8.55346 | 121.75608 | 33699 ft | 466 kts | 349° |
| 2026-05-05 07:20 | 8.61704 | 121.74435 | 33700 ft | 466 kts | 349° |
| 2026-05-05 07:21 | 8.68032 | 121.73267 | 33700 ft | 466 kts | 349° |
| 2026-05-05 07:21 | 8.74424 | 121.72088 | 33699 ft | 466 kts | 349° |
| 2026-05-05 07:22 | 8.80750 | 121.70919 | 33700 ft | 466 kts | 349° |
| 2026-05-05 07:22 | 8.87119 | 121.69743 | 33699 ft | 466 kts | 349° |
| 2026-05-05 07:23 | 8.93483 | 121.68567 | 33700 ft | 466 kts | 349° |
| 2026-05-05 07:23 | 8.99835 | 121.67393 | 33700 ft | 466 kts | 349° |
| 2026-05-05 07:24 | 9.06170 | 121.66221 | 33699 ft | 466 kts | 349° |
| 2026-05-05 07:24 | 9.12532 | 121.65044 | 33700 ft | 466 kts | 349° |
| 2026-05-05 07:25 | 9.18930 | 121.63860 | 33700 ft | 466 kts | 349° |
| 2026-05-05 07:25 | 9.25316 | 121.62678 | 33700 ft | 466 kts | 349° |
| 2026-05-05 07:26 | 9.31669 | 121.61502 | 33700 ft | 466 kts | 349° |
| 2026-05-05 07:26 | 9.38038 | 121.60323 | 33699 ft | 466 kts | 349° |
| 2026-05-05 07:27 | 9.44425 | 121.59139 | 33700 ft | 466 kts | 349° |
| 2026-05-05 07:27 | 9.50788 | 121.57959 | 33700 ft | 466 kts | 349° |
| 2026-05-05 07:28 | 9.57140 | 121.56781 | 33699 ft | 466 kts | 349° |
| 2026-05-05 07:28 | 9.63513 | 121.55598 | 33700 ft | 466 kts | 349° |
| 2026-05-05 07:29 | 9.69854 | 121.54421 | 33700 ft | 466 kts | 349° |
| 2026-05-05 07:29 | 9.76205 | 121.53242 | 33700 ft | 466 kts | 349° |
| 2026-05-05 07:30 | 9.82582 | 121.52056 | 33700 ft | 466 kts | 349° |
| 2026-05-05 07:30 | 9.92164 | 121.50274 | 33700 ft | 466 kts | 349° |
| 2026-05-05 07:31 | 9.98530 | 121.49090 | 33699 ft | 466 kts | 349° |
| 2026-05-05 07:31 | 10.04864 | 121.47911 | 33699 ft | 466 kts | 349° |
| 2026-05-05 07:32 | 10.11257 | 121.46721 | 33700 ft | 466 kts | 349° |
| 2026-05-05 07:32 | 10.17578 | 121.45544 | 33700 ft | 466 kts | 349° |
| 2026-05-05 07:33 | 10.23935 | 121.44360 | 33700 ft | 466 kts | 349° |
| 2026-05-05 07:33 | 10.30309 | 121.43173 | 33699 ft | 466 kts | 349° |
| 2026-05-05 07:34 | 10.36666 | 121.41987 | 33700 ft | 466 kts | 349° |
| 2026-05-05 07:34 | 10.43020 | 121.40802 | 33700 ft | 466 kts | 349° |
| 2026-05-05 07:35 | 10.49412 | 121.39609 | 33699 ft | 466 kts | 349° |
| 2026-05-05 07:35 | 10.55757 | 121.38416 | 33700 ft | 466 kts | 349° |
| 2026-05-05 07:36 | 10.62133 | 121.37193 | 33700 ft | 466 kts | 349° |
| 2026-05-05 07:36 | 10.68474 | 121.35981 | 33700 ft | 466 kts | 349° |
| 2026-05-05 07:37 | 10.74804 | 121.34770 | 33700 ft | 466 kts | 349° |
| 2026-05-05 07:37 | 10.81150 | 121.33557 | 33699 ft | 466 kts | 349° |
| 2026-05-05 07:38 | 10.87511 | 121.32341 | 33700 ft | 466 kts | 349° |
| 2026-05-05 07:38 | 10.93892 | 121.31120 | 33700 ft | 466 kts | 349° |
| 2026-05-05 07:39 | 11.00276 | 121.29899 | 33700 ft | 466 kts | 349° |
| 2026-05-05 07:39 | 11.06619 | 121.28705 | 33700 ft | 466 kts | 349° |
| 2026-05-05 07:40 | 11.12977 | 121.27515 | 33699 ft | 466 kts | 349° |
| 2026-05-05 07:40 | 11.19338 | 121.26320 | 33700 ft | 466 kts | 349° |
| 2026-05-05 07:41 | 11.25709 | 121.25124 | 33700 ft | 466 kts | 349° |
| 2026-05-05 07:41 | 11.32072 | 121.23927 | 33699 ft | 466 kts | 349° |
| 2026-05-05 07:42 | 11.38402 | 121.22737 | 33700 ft | 466 kts | 349° |
| 2026-05-05 07:42 | 11.44776 | 121.21538 | 33700 ft | 466 kts | 349° |
| 2026-05-05 07:43 | 11.51133 | 121.20342 | 33700 ft | 466 kts | 349° |
| 2026-05-05 07:43 | 11.57491 | 121.19144 | 33700 ft | 466 kts | 349° |
| 2026-05-05 07:44 | 11.63834 | 121.17949 | 33699 ft | 466 kts | 349° |
| 2026-05-05 07:44 | 11.70224 | 121.16745 | 33700 ft | 466 kts | 349° |
| 2026-05-05 07:45 | 11.76583 | 121.15546 | 33700 ft | 466 kts | 349° |
| 2026-05-05 07:45 | 11.82974 | 121.14340 | 33699 ft | 466 kts | 349° |
| 2026-05-05 07:46 | 11.89339 | 121.13139 | 33700 ft | 466 kts | 349° |
| 2026-05-05 07:46 | 11.95682 | 121.11941 | 33699 ft | 466 kts | 349° |
| 2026-05-05 07:47 | 12.02062 | 121.10735 | 33700 ft | 466 kts | 349° |
| 2026-05-05 07:47 | 12.08381 | 121.09541 | 33700 ft | 466 kts | 349° |
| 2026-05-05 07:48 | 12.14775 | 121.08332 | 33699 ft | 466 kts | 349° |
| 2026-05-05 07:48 | 12.21141 | 121.07127 | 33700 ft | 466 kts | 349° |
| 2026-05-05 07:49 | 12.27509 | 121.05922 | 33699 ft | 466 kts | 349° |
| 2026-05-05 07:49 | 12.33882 | 121.04752 | 33698 ft | 466 kts | 352° |
| 2026-05-05 07:50 | 12.40347 | 121.04394 | 33700 ft | 466 kts | 359° |
| 2026-05-05 07:50 | 12.46797 | 121.04295 | 33700 ft | 466 kts | 359° |
| 2026-05-05 07:51 | 12.53274 | 121.04180 | 33699 ft | 466 kts | 359° |
| 2026-05-05 07:51 | 12.59741 | 121.04098 | 33700 ft | 466 kts | 359° |
| 2026-05-05 07:52 | 12.66249 | 121.04022 | 33700 ft | 466 kts | 359° |
| 2026-05-05 07:52 | 12.72728 | 121.03953 | 33699 ft | 466 kts | 359° |
| 2026-05-05 07:53 | 12.79199 | 121.03886 | 33700 ft | 466 kts | 359° |
| 2026-05-05 07:53 | 12.85677 | 121.03820 | 33700 ft | 466 kts | 359° |
| 2026-05-05 07:54 | 12.92142 | 121.03756 | 33699 ft | 466 kts | 359° |
| 2026-05-05 07:54 | 12.98626 | 121.03691 | 33700 ft | 466 kts | 359° |
| 2026-05-05 07:55 | 13.05100 | 121.03627 | 33700 ft | 466 kts | 359° |
| 2026-05-05 07:55 | 13.11543 | 121.03563 | 33699 ft | 466 kts | 359° |
| 2026-05-05 07:56 | 13.18053 | 121.03498 | 33699 ft | 466 kts | 359° |
| 2026-05-05 07:56 | 13.24493 | 121.03435 | 33699 ft | 466 kts | 359° |
| 2026-05-05 07:57 | 13.30958 | 121.03371 | 33700 ft | 466 kts | 359° |
| 2026-05-05 07:57 | 13.37416 | 121.03307 | 33700 ft | 466 kts | 359° |
| 2026-05-05 07:58 | 13.43907 | 121.03242 | 33700 ft | 466 kts | 359° |
| 2026-05-05 07:58 | 13.50390 | 121.03177 | 33700 ft | 466 kts | 359° |
| 2026-05-05 07:59 | 13.56851 | 121.03113 | 33699 ft | 466 kts | 359° |
| 2026-05-05 07:59 | 13.63313 | 121.03048 | 33700 ft | 466 kts | 359° |
| 2026-05-05 08:00 | 13.69780 | 121.02984 | 33700 ft | 466 kts | 359° |
| 2026-05-05 08:00 | 13.76230 | 121.02920 | 33700 ft | 466 kts | 359° |
| 2026-05-05 08:01 | 13.82716 | 121.02855 | 33700 ft | 466 kts | 359° |
| 2026-05-05 08:01 | 13.89181 | 121.02790 | 33699 ft | 466 kts | 359° |
| 2026-05-05 08:02 | 13.95671 | 121.02726 | 33700 ft | 466 kts | 359° |
| 2026-05-05 08:02 | 14.02127 | 121.02661 | 33700 ft | 466 kts | 359° |
| 2026-05-05 08:03 | 14.08612 | 121.02596 | 33700 ft | 466 kts | 359° |
| 2026-05-05 08:03 | 14.15066 | 121.02531 | 33700 ft | 466 kts | 359° |
| 2026-05-05 08:04 | 14.21530 | 121.02467 | 33699 ft | 466 kts | 359° |
| 2026-05-05 08:04 | 14.28042 | 121.02401 | 33700 ft | 466 kts | 359° |
| 2026-05-05 08:05 | 14.34494 | 121.02336 | 33700 ft | 466 kts | 359° |
| 2026-05-05 08:05 | 14.40994 | 121.02271 | 33700 ft | 466 kts | 359° |
| 2026-05-05 08:06 | 14.47476 | 121.02028 | 33698 ft | 466 kts | 352° |
| 2026-05-05 08:06 | 14.53599 | 121.00093 | 33700 ft | 466 kts | 332° |
| 2026-05-05 08:07 | 14.59037 | 120.96484 | 33698 ft | 467 kts | 326° |
| 2026-05-05 08:07 | 14.64471 | 120.92844 | 33699 ft | 466 kts | 327° |
| 2026-05-05 08:08 | 14.69879 | 120.89215 | 33699 ft | 466 kts | 327° |
| 2026-05-05 08:08 | 14.75305 | 120.85548 | 33700 ft | 466 kts | 327° |
| 2026-05-05 08:09 | 14.80717 | 120.81885 | 33700 ft | 466 kts | 327° |
| 2026-05-05 08:09 | 14.86118 | 120.78221 | 33700 ft | 466 kts | 327° |
| 2026-05-05 08:10 | 14.91539 | 120.74541 | 33700 ft | 466 kts | 327° |
| 2026-05-05 08:10 | 14.96968 | 120.70851 | 33699 ft | 466 kts | 327° |
| 2026-05-05 08:11 | 15.02364 | 120.67181 | 33699 ft | 466 kts | 327° |
| 2026-05-05 08:11 | 15.07781 | 120.63494 | 33699 ft | 466 kts | 327° |
| 2026-05-05 08:12 | 15.13186 | 120.59813 | 33700 ft | 466 kts | 327° |
| 2026-05-05 08:12 | 15.18621 | 120.56111 | 33699 ft | 466 kts | 327° |
| 2026-05-05 08:13 | 15.24264 | 120.52801 | 33700 ft | 466 kts | 333° |
| 2026-05-05 08:13 | 15.29979 | 120.49680 | 33700 ft | 466 kts | 332° |
| 2026-05-05 08:14 | 15.35711 | 120.46466 | 33700 ft | 466 kts | 332° |
| 2026-05-05 08:14 | 15.41402 | 120.43278 | 33699 ft | 466 kts | 332° |
| 2026-05-05 08:15 | 15.47106 | 120.40072 | 33700 ft | 466 kts | 332° |
| 2026-05-05 08:15 | 15.52770 | 120.36884 | 33700 ft | 466 kts | 332° |
| 2026-05-05 08:16 | 15.58468 | 120.33672 | 33700 ft | 466 kts | 331° |
| 2026-05-05 08:16 | 15.64117 | 120.30486 | 33700 ft | 466 kts | 331° |
| 2026-05-05 08:17 | 15.69805 | 120.27276 | 33699 ft | 466 kts | 331° |
| 2026-05-05 08:17 | 15.75491 | 120.24064 | 33700 ft | 466 kts | 331° |
| 2026-05-05 08:18 | 15.81169 | 120.20854 | 33700 ft | 466 kts | 331° |
| 2026-05-05 08:18 | 15.86857 | 120.17636 | 33699 ft | 466 kts | 331° |
| 2026-05-05 08:19 | 15.92553 | 120.14412 | 33700 ft | 466 kts | 331° |
| 2026-05-05 08:19 | 15.98225 | 120.11199 | 33700 ft | 466 kts | 331° |
| 2026-05-05 08:20 | 16.03899 | 120.07983 | 33700 ft | 466 kts | 331° |
| 2026-05-05 08:20 | 16.09593 | 120.04754 | 33700 ft | 466 kts | 331° |
| 2026-05-05 08:21 | 16.15260 | 120.01537 | 33699 ft | 466 kts | 331° |
| 2026-05-05 08:21 | 16.20947 | 119.98308 | 33700 ft | 466 kts | 331° |
| 2026-05-05 08:22 | 16.26614 | 119.95087 | 33700 ft | 466 kts | 331° |
| 2026-05-05 08:22 | 16.32321 | 119.91842 | 33700 ft | 466 kts | 331° |
| 2026-05-05 08:23 | 16.37978 | 119.88622 | 33700 ft | 466 kts | 331° |
| 2026-05-05 08:23 | 16.43640 | 119.85398 | 33699 ft | 466 kts | 331° |
| 2026-05-05 08:24 | 16.49306 | 119.82169 | 33700 ft | 466 kts | 331° |
| 2026-05-05 08:24 | 16.55015 | 119.78915 | 33700 ft | 466 kts | 331° |
| 2026-05-05 08:25 | 16.60686 | 119.75678 | 33699 ft | 466 kts | 331° |
| 2026-05-05 08:25 | 16.66352 | 119.72443 | 33700 ft | 466 kts | 331° |
| 2026-05-05 08:26 | 16.72064 | 119.69179 | 33699 ft | 466 kts | 331° |
| 2026-05-05 08:26 | 16.77737 | 119.65936 | 33699 ft | 466 kts | 331° |
| 2026-05-05 08:27 | 16.83389 | 119.62702 | 33700 ft | 466 kts | 331° |
| 2026-05-05 08:27 | 16.89079 | 119.59445 | 33699 ft | 466 kts | 331° |
| 2026-05-05 08:28 | 16.94746 | 119.56198 | 33699 ft | 466 kts | 331° |
| 2026-05-05 08:28 | 17.00420 | 119.52945 | 33699 ft | 466 kts | 331° |
| 2026-05-05 08:29 | 17.06093 | 119.49689 | 33699 ft | 466 kts | 331° |
| 2026-05-05 08:30 | 17.14571 | 119.44822 | 33700 ft | 466 kts | 331° |
| 2026-05-05 08:30 | 17.20223 | 119.41575 | 33700 ft | 466 kts | 331° |
| 2026-05-05 08:31 | 17.25904 | 119.38307 | 33699 ft | 466 kts | 331° |
| 2026-05-05 08:31 | 17.31585 | 119.35038 | 33700 ft | 466 kts | 331° |
| 2026-05-05 08:32 | 17.37261 | 119.31769 | 33700 ft | 466 kts | 331° |
| 2026-05-05 08:32 | 17.42911 | 119.28513 | 33700 ft | 466 kts | 331° |
| 2026-05-05 08:33 | 17.48581 | 119.25242 | 33700 ft | 466 kts | 331° |
| 2026-05-05 08:33 | 17.54243 | 119.21974 | 33699 ft | 466 kts | 331° |
| 2026-05-05 08:34 | 17.59922 | 119.18694 | 33700 ft | 466 kts | 331° |
| 2026-05-05 08:34 | 17.65594 | 119.15416 | 33700 ft | 466 kts | 331° |
| 2026-05-05 08:35 | 17.71225 | 119.12159 | 33700 ft | 466 kts | 331° |
| 2026-05-05 08:35 | 17.76910 | 119.08868 | 33700 ft | 466 kts | 331° |
| 2026-05-05 08:36 | 17.82540 | 119.05607 | 33699 ft | 466 kts | 331° |
| 2026-05-05 08:36 | 17.88227 | 119.02311 | 33700 ft | 466 kts | 331° |
| 2026-05-05 08:37 | 17.93878 | 118.99033 | 33700 ft | 466 kts | 331° |
| 2026-05-05 08:37 | 17.99357 | 118.95337 | 33699 ft | 466 kts | 321° |
| 2026-05-05 08:38 | 18.03950 | 118.90588 | 33700 ft | 466 kts | 313° |
| 2026-05-05 08:38 | 18.08392 | 118.85618 | 33699 ft | 466 kts | 314° |
| 2026-05-05 08:39 | 18.12855 | 118.80678 | 33699 ft | 466 kts | 313° |
| 2026-05-05 08:39 | 18.17288 | 118.75723 | 33699 ft | 466 kts | 313° |
| 2026-05-05 08:40 | 18.21743 | 118.70736 | 33699 ft | 466 kts | 313° |
| 2026-05-05 08:40 | 18.26172 | 118.65766 | 33699 ft | 466 kts | 313° |
| 2026-05-05 08:41 | 18.30594 | 118.60797 | 33700 ft | 466 kts | 313° |
| 2026-05-05 08:41 | 18.35054 | 118.55781 | 33700 ft | 466 kts | 313° |
| 2026-05-05 08:42 | 18.39461 | 118.50819 | 33700 ft | 466 kts | 313° |
| 2026-05-05 08:42 | 18.43910 | 118.45805 | 33699 ft | 466 kts | 313° |
| 2026-05-05 08:43 | 18.48321 | 118.40829 | 33700 ft | 466 kts | 313° |
| 2026-05-05 08:43 | 18.52734 | 118.35847 | 33700 ft | 466 kts | 313° |
| 2026-05-05 08:44 | 18.57169 | 118.30836 | 33699 ft | 466 kts | 313° |
| 2026-05-05 08:44 | 18.61571 | 118.25857 | 33700 ft | 466 kts | 313° |
| 2026-05-05 08:45 | 18.65974 | 118.20875 | 33700 ft | 466 kts | 313° |
| 2026-05-05 08:45 | 18.70370 | 118.15897 | 33699 ft | 466 kts | 313° |
| 2026-05-05 08:46 | 18.74814 | 118.10860 | 33700 ft | 466 kts | 313° |
| 2026-05-05 08:46 | 18.79229 | 118.05850 | 33700 ft | 466 kts | 313° |
| 2026-05-05 08:47 | 18.83624 | 118.00860 | 33700 ft | 466 kts | 313° |
| 2026-05-05 08:47 | 18.88056 | 117.95824 | 33700 ft | 466 kts | 313° |
| 2026-05-05 08:48 | 18.92464 | 117.90809 | 33699 ft | 466 kts | 313° |
| 2026-05-05 08:48 | 18.96868 | 117.85796 | 33699 ft | 466 kts | 313° |
| 2026-05-05 08:49 | 19.01252 | 117.80802 | 33699 ft | 466 kts | 313° |
| 2026-05-05 08:49 | 19.05648 | 117.75790 | 33699 ft | 466 kts | 313° |
| 2026-05-05 08:50 | 19.10033 | 117.70785 | 33699 ft | 466 kts | 313° |
| 2026-05-05 08:50 | 19.14455 | 117.65736 | 33700 ft | 466 kts | 313° |
| 2026-05-05 08:51 | 19.18831 | 117.60733 | 33700 ft | 466 kts | 313° |
| 2026-05-05 08:51 | 19.23219 | 117.55713 | 33700 ft | 466 kts | 313° |
| 2026-05-05 08:52 | 19.27621 | 117.50672 | 33699 ft | 466 kts | 313° |
| 2026-05-05 08:52 | 19.32011 | 117.45641 | 33700 ft | 466 kts | 313° |
| 2026-05-05 08:53 | 19.36405 | 117.40601 | 33700 ft | 466 kts | 313° |
| 2026-05-05 08:53 | 19.40787 | 117.35571 | 33700 ft | 466 kts | 313° |
| 2026-05-05 08:54 | 19.45163 | 117.30543 | 33700 ft | 466 kts | 313° |
| 2026-05-05 08:54 | 19.49567 | 117.25478 | 33699 ft | 466 kts | 313° |
| 2026-05-05 08:55 | 19.53932 | 117.20454 | 33700 ft | 466 kts | 313° |
| 2026-05-05 08:55 | 19.58317 | 117.15403 | 33700 ft | 466 kts | 313° |
| 2026-05-05 08:56 | 19.62704 | 117.10345 | 33700 ft | 466 kts | 313° |
| 2026-05-05 08:56 | 19.67078 | 117.05298 | 33699 ft | 466 kts | 313° |
| 2026-05-05 08:57 | 19.71448 | 117.00250 | 33699 ft | 466 kts | 313° |
| 2026-05-05 08:57 | 19.75812 | 116.95207 | 33700 ft | 466 kts | 313° |
| 2026-05-05 08:58 | 19.80204 | 116.90125 | 33700 ft | 466 kts | 313° |
| 2026-05-05 08:58 | 19.84588 | 116.85048 | 33699 ft | 466 kts | 313° |
| 2026-05-05 08:59 | 19.88968 | 116.79972 | 33699 ft | 466 kts | 313° |
| 2026-05-05 08:59 | 19.93357 | 116.74881 | 33699 ft | 466 kts | 313° |
| 2026-05-05 09:00 | 19.97890 | 116.69971 | 33698 ft | 466 kts | 321° |
| 2026-05-05 09:00 | 20.03464 | 116.66566 | 33701 ft | 466 kts | 341° |
| 2026-05-05 09:01 | 20.09764 | 116.64967 | 33698 ft | 467 kts | 348° |
| 2026-05-05 09:01 | 20.16133 | 116.63441 | 33699 ft | 466 kts | 347° |
| 2026-05-05 09:02 | 20.22420 | 116.61925 | 33699 ft | 466 kts | 347° |
| 2026-05-05 09:02 | 20.28769 | 116.60419 | 33699 ft | 466 kts | 347° |
| 2026-05-05 09:03 | 20.35085 | 116.58921 | 33700 ft | 466 kts | 347° |
| 2026-05-05 09:03 | 20.41428 | 116.57420 | 33699 ft | 466 kts | 347° |
| 2026-05-05 09:04 | 20.47751 | 116.55924 | 33700 ft | 466 kts | 347° |
| 2026-05-05 09:04 | 20.54029 | 116.54439 | 33700 ft | 466 kts | 347° |
| 2026-05-05 09:05 | 20.60349 | 116.52943 | 33699 ft | 466 kts | 347° |
| 2026-05-05 09:05 | 20.66672 | 116.51446 | 33699 ft | 466 kts | 347° |
| 2026-05-05 09:06 | 20.72987 | 116.49950 | 33700 ft | 466 kts | 347° |
| 2026-05-05 09:06 | 20.79278 | 116.48457 | 33700 ft | 466 kts | 347° |
| 2026-05-05 09:07 | 20.85624 | 116.46950 | 33699 ft | 466 kts | 347° |
| 2026-05-05 09:07 | 20.91926 | 116.45454 | 33699 ft | 466 kts | 347° |
| 2026-05-05 09:08 | 20.98254 | 116.43949 | 33700 ft | 466 kts | 347° |
| 2026-05-05 09:08 | 21.04570 | 116.42446 | 33699 ft | 466 kts | 347° |
| 2026-05-05 09:09 | 21.10895 | 116.40939 | 33700 ft | 466 kts | 347° |
| 2026-05-05 09:09 | 21.17228 | 116.39430 | 33699 ft | 466 kts | 347° |
| 2026-05-05 09:10 | 21.23529 | 116.37928 | 33700 ft | 466 kts | 347° |
| 2026-05-05 09:10 | 21.29849 | 116.36419 | 33700 ft | 466 kts | 347° |
| 2026-05-05 09:11 | 21.36136 | 116.34917 | 33700 ft | 466 kts | 347° |
| 2026-05-05 09:11 | 21.42441 | 116.33408 | 33700 ft | 466 kts | 347° |
| 2026-05-05 09:12 | 21.48758 | 116.31895 | 33699 ft | 466 kts | 347° |
| 2026-05-05 09:12 | 21.55087 | 116.30379 | 33700 ft | 466 kts | 347° |
| 2026-05-05 09:13 | 21.61380 | 116.28870 | 33700 ft | 466 kts | 347° |
| 2026-05-05 09:13 | 21.67682 | 116.27357 | 33700 ft | 466 kts | 347° |
| 2026-05-05 09:14 | 21.73983 | 116.25842 | 33700 ft | 466 kts | 347° |
| 2026-05-05 09:14 | 21.80348 | 116.24312 | 33699 ft | 466 kts | 347° |
| 2026-05-05 09:15 | 21.86673 | 116.22790 | 33700 ft | 466 kts | 347° |
| 2026-05-05 09:15 | 21.92966 | 116.21273 | 33700 ft | 466 kts | 347° |
| 2026-05-05 09:16 | 21.99311 | 116.19775 | 33699 ft | 466 kts | 349° |
| 2026-05-05 09:16 | 22.05726 | 116.19134 | 33700 ft | 466 kts | 358° |
| 2026-05-05 09:17 | 22.12185 | 116.18890 | 33699 ft | 466 kts | 358° |
| 2026-05-05 09:17 | 22.18628 | 116.18618 | 33699 ft | 466 kts | 358° |
| 2026-05-05 09:18 | 22.25118 | 116.18384 | 33699 ft | 466 kts | 358° |
| 2026-05-05 09:18 | 22.31613 | 116.18159 | 33700 ft | 466 kts | 358° |
| 2026-05-05 09:19 | 22.38055 | 116.17942 | 33699 ft | 466 kts | 358° |
| 2026-05-05 09:19 | 22.44535 | 116.17728 | 33700 ft | 466 kts | 358° |
| 2026-05-05 09:20 | 22.51030 | 116.17514 | 33700 ft | 466 kts | 358° |
| 2026-05-05 09:20 | 22.57464 | 116.17303 | 33699 ft | 466 kts | 358° |
| 2026-05-05 09:21 | 22.63957 | 116.17091 | 33699 ft | 466 kts | 358° |
| 2026-05-05 09:21 | 22.70369 | 116.17708 | 33699 ft | 466 kts | 14° |
| 2026-05-05 09:21 | 22.73384 | 116.18851 | 33700 ft | 466 kts | 25° |
| 2026-05-05 09:22 | 22.76201 | 116.20607 | 33701 ft | 466 kts | 34° |
| 2026-05-05 09:22 | 22.81379 | 116.24880 | 33699 ft | 467 kts | 37° |
| 2026-05-05 09:23 | 22.86565 | 116.29120 | 33699 ft | 466 kts | 37° |
| 2026-05-05 09:23 | 22.91693 | 116.33343 | 33699 ft | 466 kts | 37° |
| 2026-05-05 09:24 | 22.96857 | 116.37618 | 33699 ft | 466 kts | 37° |
| 2026-05-05 09:24 | 23.02004 | 116.41853 | 33700 ft | 466 kts | 37° |
| 2026-05-05 09:25 | 23.07161 | 116.46107 | 33699 ft | 466 kts | 37° |
| 2026-05-05 09:25 | 23.12302 | 116.50358 | 33700 ft | 466 kts | 37° |
| 2026-05-05 09:26 | 23.17474 | 116.54637 | 33699 ft | 466 kts | 37° |
| 2026-05-05 09:26 | 23.22597 | 116.58882 | 33700 ft | 466 kts | 37° |
| 2026-05-05 09:27 | 23.27731 | 116.63140 | 33700 ft | 466 kts | 37° |
| 2026-05-05 09:27 | 23.31438 | 116.66219 | 33699 ft | 466 kts | 37° |
| 2026-05-05 09:28 | 23.36799 | 116.70674 | 33700 ft | 466 kts | 37° |
| 2026-05-05 09:28 | 23.41931 | 116.74958 | 33699 ft | 466 kts | 38° |
| 2026-05-05 09:29 | 23.46689 | 116.79765 | 33701 ft | 466 kts | 46° |
| 2026-05-05 09:29 | 23.51161 | 116.84872 | 33700 ft | 466 kts | 46° |
| 2026-05-05 09:30 | 23.55678 | 116.89945 | 33699 ft | 466 kts | 46° |
| 2026-05-05 09:30 | 23.60167 | 116.95030 | 33700 ft | 466 kts | 46° |
| 2026-05-05 09:31 | 23.64653 | 117.00123 | 33700 ft | 466 kts | 46° |
| 2026-05-05 09:31 | 23.69139 | 117.05225 | 33699 ft | 466 kts | 46° |
| 2026-05-05 09:32 | 23.73632 | 117.10342 | 33700 ft | 466 kts | 46° |
| 2026-05-05 09:32 | 23.78138 | 117.15384 | 33699 ft | 466 kts | 43° |
| 2026-05-05 09:33 | 23.83015 | 117.20052 | 33699 ft | 466 kts | 41° |
| 2026-05-05 09:33 | 23.87885 | 117.24758 | 33699 ft | 466 kts | 41° |
| 2026-05-05 09:34 | 23.92722 | 117.29472 | 33699 ft | 466 kts | 41° |
| 2026-05-05 09:34 | 23.97571 | 117.34203 | 33699 ft | 466 kts | 41° |
| 2026-05-05 09:35 | 24.02400 | 117.38927 | 33699 ft | 466 kts | 41° |
| 2026-05-05 09:35 | 24.09650 | 117.46034 | 33699 ft | 466 kts | 41° |
| 2026-05-05 09:36 | 24.14420 | 117.50793 | 33698 ft | 466 kts | 45° |
| 2026-05-05 09:36 | 24.18806 | 117.56055 | 33700 ft | 466 kts | 48° |
| 2026-05-05 09:37 | 24.23138 | 117.61285 | 33700 ft | 466 kts | 47° |
| 2026-05-05 09:37 | 24.27521 | 117.66546 | 33699 ft | 466 kts | 47° |
| 2026-05-05 09:38 | 24.31868 | 117.71778 | 33699 ft | 466 kts | 47° |
| 2026-05-05 09:38 | 24.36236 | 117.77036 | 33700 ft | 466 kts | 47° |
| 2026-05-05 09:39 | 24.40577 | 117.82267 | 33699 ft | 466 kts | 47° |
| 2026-05-05 09:39 | 24.44942 | 117.87531 | 33700 ft | 466 kts | 47° |
| 2026-05-05 09:40 | 24.49287 | 117.92777 | 33700 ft | 466 kts | 47° |
| 2026-05-05 09:40 | 24.53647 | 117.98047 | 33700 ft | 466 kts | 47° |
| 2026-05-05 09:41 | 24.58037 | 118.03319 | 33699 ft | 466 kts | 46° |
| 2026-05-05 09:41 | 24.62550 | 118.08401 | 33700 ft | 466 kts | 45° |
| 2026-05-05 09:42 | 24.67071 | 118.13514 | 33700 ft | 466 kts | 46° |
| 2026-05-05 09:42 | 24.71477 | 118.18520 | 33699 ft | 466 kts | 46° |
| 2026-05-05 09:43 | 24.75977 | 118.23644 | 33699 ft | 466 kts | 46° |
| 2026-05-05 09:43 | 24.80486 | 118.28786 | 33700 ft | 466 kts | 46° |
| 2026-05-05 09:44 | 24.84980 | 118.33917 | 33699 ft | 466 kts | 46° |
| 2026-05-05 09:44 | 24.89464 | 118.39045 | 33699 ft | 466 kts | 46° |
| 2026-05-05 09:45 | 24.93983 | 118.44218 | 33699 ft | 466 kts | 46° |
| 2026-05-05 09:45 | 24.98453 | 118.49340 | 33699 ft | 466 kts | 46° |
| 2026-05-05 09:46 | 25.02944 | 118.54493 | 33699 ft | 466 kts | 46° |
| 2026-05-05 09:46 | 25.07432 | 118.59648 | 33699 ft | 466 kts | 46° |
| 2026-05-05 09:47 | 25.11895 | 118.64852 | 33700 ft | 466 kts | 47° |
| 2026-05-05 09:47 | 25.16241 | 118.70139 | 33699 ft | 466 kts | 47° |
| 2026-05-05 09:48 | 25.20601 | 118.75408 | 33699 ft | 466 kts | 47° |
| 2026-05-05 09:48 | 25.24964 | 118.80686 | 33699 ft | 466 kts | 47° |
| 2026-05-05 09:49 | 25.29323 | 118.85963 | 33699 ft | 466 kts | 47° |
| 2026-05-05 09:49 | 25.33697 | 118.91261 | 33700 ft | 466 kts | 47° |
| 2026-05-05 09:50 | 25.38128 | 118.96498 | 33700 ft | 466 kts | 46° |
| 2026-05-05 09:50 | 25.42604 | 119.01688 | 33700 ft | 466 kts | 46° |
| 2026-05-05 09:51 | 25.47059 | 119.06892 | 33700 ft | 466 kts | 46° |
| 2026-05-05 09:51 | 25.51512 | 119.12099 | 33700 ft | 466 kts | 46° |
| 2026-05-05 09:52 | 25.55959 | 119.17306 | 33699 ft | 466 kts | 46° |
| 2026-05-05 09:52 | 25.60398 | 119.22510 | 33699 ft | 466 kts | 46° |
| 2026-05-05 09:53 | 25.64839 | 119.27724 | 33699 ft | 466 kts | 46° |
| 2026-05-05 09:53 | 25.69311 | 119.32981 | 33700 ft | 466 kts | 46° |
| 2026-05-05 09:54 | 25.74136 | 119.37695 | 33699 ft | 466 kts | 32° |
| 2026-05-05 09:54 | 25.80090 | 119.40533 | 33703 ft | 466 kts | 16° |
| 2026-05-05 09:55 | 25.86298 | 119.42587 | 33699 ft | 466 kts | 17° |
| 2026-05-05 09:55 | 25.92450 | 119.44728 | 33699 ft | 466 kts | 17° |
| 2026-05-05 09:56 | 25.98622 | 119.46841 | 33699 ft | 466 kts | 17° |
| 2026-05-05 09:56 | 26.04816 | 119.48959 | 33700 ft | 466 kts | 17° |
| 2026-05-05 09:57 | 26.10970 | 119.51062 | 33700 ft | 466 kts | 17° |
| 2026-05-05 09:57 | 26.17181 | 119.53190 | 33699 ft | 466 kts | 18° |
| 2026-05-05 09:58 | 26.23156 | 119.55911 | 33698 ft | 466 kts | 28° |
| 2026-05-05 09:58 | 26.28673 | 119.59663 | 33700 ft | 466 kts | 32° |
| 2026-05-05 09:59 | 26.34155 | 119.63427 | 33699 ft | 466 kts | 31° |
| 2026-05-05 09:59 | 26.37757 | 119.65912 | 33700 ft | 466 kts | 32° |